Malta Bend, Missouri
Current Conditions -  °F | °C
As of 10:58 PM on Friday 24 Oct 2014 (Local Time) from KSZL Reporting Station
Clear Clear  
Wind Chill: 64°   Ceiling: Unl
Heat Index: 64°   Visibility: 10mi
Dew Point: 60°   Wind: 9mph
Humidity: 87%   Direction: 220°SW
Pressure: 30"   Gusts: NA
Location:  39.19°N, 93.36°W
Report Text: KSZL 250358Z AUTO 22008KT 10SM CLR 18/16 A3000 RMK AO2 SLP158 T01790158 $
Loading
Personal Weather Stations






























Interactive Weather Map New forecast layout! Learn more

10-Day Weather Forecast

Advertisements
Track Severe Weather on mobile